sensor_id;sensor_type;location;lat;lon;timestamp;temperature;humidity
12602;DHT22;30282;16.436;99.370;2023-05-03T00:00:36;28.50;99.90
12602;DHT22;30282;16.436;99.370;2023-05-03T00:03:08;28.60;99.90
12602;DHT22;30282;16.436;99.370;2023-05-03T00:05:39;28.60;99.90
12602;DHT22;30282;16.436;99.370;2023-05-03T00:08:08;28.60;99.90
12602;DHT22;30282;16.436;99.370;2023-05-03T00:10:37;28.60;99.90
12602;DHT22;30282;16.436;99.370;2023-05-03T00:13:06;28.60;99.90
12602;DHT22;30282;16.436;99.370;2023-05-03T00:15:35;28.60;99.90
12602;DHT22;30282;16.436;99.370;2023-05-03T00:18:04;28.60;99.90
12602;DHT22;30282;16.436;99.370;2023-05-03T00:20:35;28.60;99.90
12602;DHT22;30282;16.436;99.370;2023-05-03T00:23:04;28.50;99.90
12602;DHT22;30282;16.436;99.370;2023-05-03T00:25:33;28.70;99.90
12602;DHT22;30282;16.436;99.370;2023-05-03T00:28:02;28.70;99.90
12602;DHT22;30282;16.436;99.370;2023-05-03T00:30:31;28.80;99.90
12602;DHT22;30282;16.436;99.370;2023-05-03T00:33:00;28.80;99.90
12602;DHT22;30282;16.436;99.370;2023-05-03T00:35:29;28.80;99.90
12602;DHT22;30282;16.436;99.370;2023-05-03T00:37:59;28.80;99.90
12602;DHT22;30282;16.436;99.370;2023-05-03T00:40:28;28.90;99.90
12602;DHT22;30282;16.436;99.370;2023-05-03T00:42:57;29.00;99.90
12602;DHT22;30282;16.436;99.370;2023-05-03T00:45:27;29.10;99.90
12602;DHT22;30282;16.436;99.370;2023-05-03T00:47:57;29.10;99.90
12602;DHT22;30282;16.436;99.370;2023-05-03T00:50:26;29.10;99.90
12602;DHT22;30282;16.436;99.370;2023-05-03T00:52:55;29.20;99.90
12602;DHT22;30282;16.436;99.370;2023-05-03T00:55:29;29.20;99.90
12602;DHT22;30282;16.436;99.370;2023-05-03T00:57:58;29.40;99.90
12602;DHT22;30282;16.436;99.370;2023-05-03T01:00:28;29.40;99.90
12602;DHT22;30282;16.436;99.370;2023-05-03T01:02:57;29.50;99.90
12602;DHT22;30282;16.436;99.370;2023-05-03T01:05:29;29.60;99.90
12602;DHT22;30282;16.436;99.370;2023-05-03T01:08:07;29.60;99.90
12602;DHT22;30282;16.436;99.370;2023-05-03T01:10:43;29.70;99.90
12602;DHT22;30282;16.436;99.370;2023-05-03T01:13:20;29.70;99.90
12602;DHT22;30282;16.436;99.370;2023-05-03T01:15:56;29.80;99.90
12602;DHT22;30282;16.436;99.370;2023-05-03T01:18:30;29.80;99.90
12602;DHT22;30282;16.436;99.370;2023-05-03T01:21:00;29.90;99.90
12602;DHT22;30282;16.436;99.370;2023-05-03T01:23:39;29.90;99.90
12602;DHT22;30282;16.436;99.370;2023-05-03T01:26:21;29.90;99.90
12602;DHT22;30282;16.436;99.370;2023-05-03T01:28:51;29.90;99.90
12602;DHT22;30282;16.436;99.370;2023-05-03T01:31:25;29.90;99.90
12602;DHT22;30282;16.436;99.370;2023-05-03T01:34:04;29.90;99.90
12602;DHT22;30282;16.436;99.370;2023-05-03T01:36:36;29.90;99.90
12602;DHT22;30282;16.436;99.370;2023-05-03T01:39:09;29.90;99.90
12602;DHT22;30282;16.436;99.370;2023-05-03T01:41:42;29.90;99.90
12602;DHT22;30282;16.436;99.370;2023-05-03T01:44:13;30.00;99.90
12602;DHT22;30282;16.436;99.370;2023-05-03T01:46:44;30.00;99.90
12602;DHT22;30282;16.436;99.370;2023-05-03T01:49:13;30.00;99.90
12602;DHT22;30282;16.436;99.370;2023-05-03T01:51:42;30.00;99.90
12602;DHT22;30282;16.436;99.370;2023-05-03T01:54:11;30.10;99.90
12602;DHT22;30282;16.436;99.370;2023-05-03T01:56:41;30.10;99.90
12602;DHT22;30282;16.436;99.370;2023-05-03T01:59:11;30.10;99.90
12602;DHT22;30282;16.436;99.370;2023-05-03T02:01:40;30.00;99.90
12602;DHT22;30282;16.436;99.370;2023-05-03T02:04:09;29.90;99.90
12602;DHT22;30282;16.436;99.370;2023-05-03T02:06:38;29.90;99.90
12602;DHT22;30282;16.436;99.370;2023-05-03T02:09:07;29.90;99.90
12602;DHT22;30282;16.436;99.370;2023-05-03T02:11:36;30.00;99.90
12602;DHT22;30282;16.436;99.370;2023-05-03T02:14:07;30.10;99.90
12602;DHT22;30282;16.436;99.370;2023-05-03T02:16:36;30.10;99.90
12602;DHT22;30282;16.436;99.370;2023-05-03T02:19:05;30.20;99.90
12602;DHT22;30282;16.436;99.370;2023-05-03T02:21:34;30.30;99.90
12602;DHT22;30282;16.436;99.370;2023-05-03T02:24:04;30.30;99.90
12602;DHT22;30282;16.436;99.370;2023-05-03T02:26:33;30.40;99.90
12602;DHT22;30282;16.436;99.370;2023-05-03T02:29:02;30.40;99.90
12602;DHT22;30282;16.436;99.370;2023-05-03T02:31:34;30.40;99.90
12602;DHT22;30282;16.436;99.370;2023-05-03T02:34:03;30.50;99.90
12602;DHT22;30282;16.436;99.370;2023-05-03T11:04:38;33.40;99.90
12602;DHT22;30282;16.436;99.370;2023-05-03T11:07:09;33.60;99.90
12602;DHT22;30282;16.436;99.370;2023-05-03T11:09:39;33.70;99.90
12602;DHT22;30282;16.436;99.370;2023-05-03T11:12:08;33.70;99.90
12602;DHT22;30282;16.436;99.370;2023-05-03T11:14:37;33.70;99.90
12602;DHT22;30282;16.436;99.370;2023-05-03T11:17:47;33.70;99.90
12602;DHT22;30282;16.436;99.370;2023-05-03T11:20:19;33.60;99.90
12602;DHT22;30282;16.436;99.370;2023-05-03T11:22:49;33.70;99.90
12602;DHT22;30282;16.436;99.370;2023-05-03T11:25:18;33.70;99.90
12602;DHT22;30282;16.436;99.370;2023-05-03T11:27:47;33.70;99.90
12602;DHT22;30282;16.436;99.370;2023-05-03T11:30:17;33.60;99.90
12602;DHT22;30282;16.436;99.370;2023-05-03T11:32:47;33.60;99.90
12602;DHT22;30282;16.436;99.370;2023-05-03T11:35:18;33.60;99.90
12602;DHT22;30282;16.436;99.370;2023-05-03T11:37:49;33.50;99.90
12602;DHT22;30282;16.436;99.370;2023-05-03T11:40:19;33.50;99.90
12602;DHT22;30282;16.436;99.370;2023-05-03T11:42:52;33.50;99.90
12602;DHT22;30282;16.436;99.370;2023-05-03T11:45:23;33.40;99.90
12602;DHT22;30282;16.436;99.370;2023-05-03T11:47:53;33.40;99.90
12602;DHT22;30282;16.436;99.370;2023-05-03T11:53:29;33.40;99.90
12602;DHT22;30282;16.436;99.370;2023-05-03T11:56:00;33.30;99.90
12602;DHT22;30282;16.436;99.370;2023-05-03T11:58:29;33.20;99.90
12602;DHT22;30282;16.436;99.370;2023-05-03T12:00:59;33.30;99.90
12602;DHT22;30282;16.436;99.370;2023-05-03T12:03:29;33.10;99.90
12602;DHT22;30282;16.436;99.370;2023-05-03T12:05:59;33.20;99.90
12602;DHT22;30282;16.436;99.370;2023-05-03T12:08:31;33.10;99.90
12602;DHT22;30282;16.436;99.370;2023-05-03T12:11:01;33.10;99.90
12602;DHT22;30282;16.436;99.370;2023-05-03T12:13:32;33.10;99.90
12602;DHT22;30282;16.436;99.370;2023-05-03T12:16:02;33.10;99.90
12602;DHT22;30282;16.436;99.370;2023-05-03T12:18:48;33.10;99.90
12602;DHT22;30282;16.436;99.370;2023-05-03T12:21:18;33.00;99.90
12602;DHT22;30282;16.436;99.370;2023-05-03T12:23:49;33.00;99.90
12602;DHT22;30282;16.436;99.370;2023-05-03T12:26:19;32.90;99.90
12602;DHT22;30282;16.436;99.370;2023-05-03T12:28:49;32.90;99.90
12602;DHT22;30282;16.436;99.370;2023-05-03T12:31:18;32.90;99.90
12602;DHT22;30282;16.436;99.370;2023-05-03T12:33:48;32.80;99.90
12602;DHT22;30282;16.436;99.370;2023-05-03T12:36:17;32.80;99.90
12602;DHT22;30282;16.436;99.370;2023-05-03T12:38:49;32.80;99.90
12602;DHT22;30282;16.436;99.370;2023-05-03T12:41:19;32.80;99.90
12602;DHT22;30282;16.436;99.370;2023-05-03T12:43:49;32.70;99.90
12602;DHT22;30282;16.436;99.370;2023-05-03T12:46:19;32.80;99.90
12602;DHT22;30282;16.436;99.370;2023-05-03T12:48:49;32.70;99.90
12602;DHT22;30282;16.436;99.370;2023-05-03T12:51:19;32.70;99.90
12602;DHT22;30282;16.436;99.370;2023-05-03T12:53:50;32.70;99.90
12602;DHT22;30282;16.436;99.370;2023-05-03T12:56:19;32.70;99.90
12602;DHT22;30282;16.436;99.370;2023-05-03T12:58:49;32.60;99.90
12602;DHT22;30282;16.436;99.370;2023-05-03T13:01:19;32.60;99.90
12602;DHT22;30282;16.436;99.370;2023-05-03T13:03:48;32.50;99.90
12602;DHT22;30282;16.436;99.370;2023-05-03T13:06:18;32.40;99.90
12602;DHT22;30282;16.436;99.370;2023-05-03T13:08:49;32.20;99.90
12602;DHT22;30282;16.436;99.370;2023-05-03T13:11:18;32.10;99.90
12602;DHT22;30282;16.436;99.370;2023-05-03T13:13:48;32.00;99.90
12602;DHT22;30282;16.436;99.370;2023-05-03T13:16:17;31.90;99.90
12602;DHT22;30282;16.436;99.370;2023-05-03T13:18:47;32.00;99.90
12602;DHT22;30282;16.436;99.370;2023-05-03T13:21:21;32.00;99.90
12602;DHT22;30282;16.436;99.370;2023-05-03T13:23:52;32.00;99.90
12602;DHT22;30282;16.436;99.370;2023-05-03T13:26:21;32.00;99.90
12602;DHT22;30282;16.436;99.370;2023-05-03T13:28:50;32.00;99.90
12602;DHT22;30282;16.436;99.370;2023-05-03T13:31:20;32.00;99.90
12602;DHT22;30282;16.436;99.370;2023-05-03T13:33:50;31.90;99.90
12602;DHT22;30282;16.436;99.370;2023-05-03T13:36:20;31.80;99.90
12602;DHT22;30282;16.436;99.370;2023-05-03T13:38:52;31.80;99.90
12602;DHT22;30282;16.436;99.370;2023-05-03T13:41:21;31.80;99.90
12602;DHT22;30282;16.436;99.370;2023-05-03T13:43:50;31.90;99.90
12602;DHT22;30282;16.436;99.370;2023-05-03T13:46:20;31.90;99.90
12602;DHT22;30282;16.436;99.370;2023-05-03T13:48:49;32.00;99.90
12602;DHT22;30282;16.436;99.370;2023-05-03T13:51:20;32.00;99.90
12602;DHT22;30282;16.436;99.370;2023-05-03T13:53:52;32.00;99.90
12602;DHT22;30282;16.436;99.370;2023-05-03T13:56:22;32.00;99.90
12602;DHT22;30282;16.436;99.370;2023-05-03T13:58:52;32.00;99.90
12602;DHT22;30282;16.436;99.370;2023-05-03T14:01:22;32.00;99.90
12602;DHT22;30282;16.436;99.370;2023-05-03T14:03:52;32.00;99.90
12602;DHT22;30282;16.436;99.370;2023-05-03T14:06:22;32.00;99.90
12602;DHT22;30282;16.436;99.370;2023-05-03T14:08:53;31.90;99.90
12602;DHT22;30282;16.436;99.370;2023-05-03T14:11:24;32.00;99.90
12602;DHT22;30282;16.436;99.370;2023-05-03T14:13:57;31.80;99.90
12602;DHT22;30282;16.436;99.370;2023-05-03T14:16:27;31.80;99.90
12602;DHT22;30282;16.436;99.370;2023-05-03T14:18:57;31.80;99.90
12602;DHT22;30282;16.436;99.370;2023-05-03T14:21:28;31.80;99.90
12602;DHT22;30282;16.436;99.370;2023-05-03T14:24:00;31.70;99.90
12602;DHT22;30282;16.436;99.370;2023-05-03T14:26:30;31.70;99.90
12602;DHT22;30282;16.436;99.370;2023-05-03T14:29:01;31.60;99.90
12602;DHT22;30282;16.436;99.370;2023-05-03T14:31:31;31.60;99.90
12602;DHT22;30282;16.436;99.370;2023-05-03T14:34:02;31.50;99.90
12602;DHT22;30282;16.436;99.370;2023-05-03T14:36:33;31.40;99.90
12602;DHT22;30282;16.436;99.370;2023-05-03T14:39:07;31.40;99.90
12602;DHT22;30282;16.436;99.370;2023-05-03T14:41:36;31.30;99.90
12602;DHT22;30282;16.436;99.370;2023-05-03T14:44:06;31.40;99.90
12602;DHT22;30282;16.436;99.370;2023-05-03T14:46:36;31.30;99.90
12602;DHT22;30282;16.436;99.370;2023-05-03T14:49:05;31.20;99.90
12602;DHT22;30282;16.436;99.370;2023-05-03T14:51:35;31.10;99.90
12602;DHT22;30282;16.436;99.370;2023-05-03T14:54:06;31.10;99.90
12602;DHT22;30282;16.436;99.370;2023-05-03T14:56:36;31.10;99.90
12602;DHT22;30282;16.436;99.370;2023-05-03T14:59:06;31.10;99.90
12602;DHT22;30282;16.436;99.370;2023-05-03T15:01:36;31.10;99.90
12602;DHT22;30282;16.436;99.370;2023-05-03T15:04:05;31.10;99.90
12602;DHT22;30282;16.436;99.370;2023-05-03T15:06:36;31.10;99.90
12602;DHT22;30282;16.436;99.370;2023-05-03T15:09:09;31.10;99.90
12602;DHT22;30282;16.436;99.370;2023-05-03T15:11:39;31.20;99.90
12602;DHT22;30282;16.436;99.370;2023-05-03T15:14:08;31.20;99.90
12602;DHT22;30282;16.436;99.370;2023-05-03T15:16:38;31.20;99.90
12602;DHT22;30282;16.436;99.370;2023-05-03T15:19:08;31.20;99.90
12602;DHT22;30282;16.436;99.370;2023-05-03T15:21:47;31.20;99.90
12602;DHT22;30282;16.436;99.370;2023-05-03T15:24:18;31.10;99.90
12602;DHT22;30282;16.436;99.370;2023-05-03T15:26:48;30.90;99.90
12602;DHT22;30282;16.436;99.370;2023-05-03T15:29:17;30.80;99.90
12602;DHT22;30282;16.436;99.370;2023-05-03T15:31:47;30.70;99.90
12602;DHT22;30282;16.436;99.370;2023-05-03T15:34:17;30.60;99.90
12602;DHT22;30282;16.436;99.370;2023-05-03T15:36:46;30.60;99.90
12602;DHT22;30282;16.436;99.370;2023-05-03T15:39:21;30.60;99.90
12602;DHT22;30282;16.436;99.370;2023-05-03T15:41:50;30.50;99.90
12602;DHT22;30282;16.436;99.370;2023-05-03T15:44:20;30.40;99.90
12602;DHT22;30282;16.436;99.370;2023-05-03T15:46:49;30.40;99.90
12602;DHT22;30282;16.436;99.370;2023-05-03T15:49:19;30.40;99.90
12602;DHT22;30282;16.436;99.370;2023-05-03T15:51:48;30.40;99.90
12602;DHT22;30282;16.436;99.370;2023-05-03T15:54:17;30.40;99.90
12602;DHT22;30282;16.436;99.370;2023-05-03T15:56:48;30.40;99.90
12602;DHT22;30282;16.436;99.370;2023-05-03T15:59:19;30.40;99.90
12602;DHT22;30282;16.436;99.370;2023-05-03T16:01:48;30.30;99.90
12602;DHT22;30282;16.436;99.370;2023-05-03T16:04:18;30.30;99.90
12602;DHT22;30282;16.436;99.370;2023-05-03T16:06:47;30.20;99.90
12602;DHT22;30282;16.436;99.370;2023-05-03T16:09:16;30.20;99.90
12602;DHT22;30282;16.436;99.370;2023-05-03T16:11:49;30.10;99.90
12602;DHT22;30282;16.436;99.370;2023-05-03T16:14:18;30.00;99.90
12602;DHT22;30282;16.436;99.370;2023-05-03T16:16:48;30.00;99.90
12602;DHT22;30282;16.436;99.370;2023-05-03T16:19:17;30.00;99.90
12602;DHT22;30282;16.436;99.370;2023-05-03T16:21:46;30.00;99.90
12602;DHT22;30282;16.436;99.370;2023-05-03T16:24:16;30.00;99.90
12602;DHT22;30282;16.436;99.370;2023-05-03T16:26:47;30.10;99.90
12602;DHT22;30282;16.436;99.370;2023-05-03T16:29:17;30.10;99.90
12602;DHT22;30282;16.436;99.370;2023-05-03T16:31:46;30.00;99.90
12602;DHT22;30282;16.436;99.370;2023-05-03T16:34:16;30.00;99.90
12602;DHT22;30282;16.436;99.370;2023-05-03T16:36:45;29.90;99.90
12602;DHT22;30282;16.436;99.370;2023-05-03T16:39:15;29.80;99.90
12602;DHT22;30282;16.436;99.370;2023-05-03T16:41:44;29.90;99.90
12602;DHT22;30282;16.436;99.370;2023-05-03T16:44:15;29.90;99.90
12602;DHT22;30282;16.436;99.370;2023-05-03T16:46:45;30.00;99.90
12602;DHT22;30282;16.436;99.370;2023-05-03T16:49:14;30.00;99.90
12602;DHT22;30282;16.436;99.370;2023-05-03T16:51:44;30.10;99.90
12602;DHT22;30282;16.436;99.370;2023-05-03T16:54:13;30.10;99.90
12602;DHT22;30282;16.436;99.370;2023-05-03T16:56:43;30.00;99.90
12602;DHT22;30282;16.436;99.370;2023-05-03T16:59:14;29.80;99.90
12602;DHT22;30282;16.436;99.370;2023-05-03T17:01:43;29.80;99.90
12602;DHT22;30282;16.436;99.370;2023-05-03T17:04:13;29.80;99.90
12602;DHT22;30282;16.436;99.370;2023-05-03T17:06:43;29.80;99.90
12602;DHT22;30282;16.436;99.370;2023-05-03T17:09:13;29.90;99.90
12602;DHT22;30282;16.436;99.370;2023-05-03T17:11:42;29.90;99.90
12602;DHT22;30282;16.436;99.370;2023-05-03T17:14:16;29.90;99.90
12602;DHT22;30282;16.436;99.370;2023-05-03T17:16:45;29.90;99.90
12602;DHT22;30282;16.436;99.370;2023-05-03T17:19:15;29.90;99.90
12602;DHT22;30282;16.436;99.370;2023-05-03T17:21:45;29.90;99.90
12602;DHT22;30282;16.436;99.370;2023-05-03T17:24:14;29.80;99.90
12602;DHT22;30282;16.436;99.370;2023-05-03T17:26:43;29.80;99.90
12602;DHT22;30282;16.436;99.370;2023-05-03T17:29:12;29.90;99.90
12602;DHT22;30282;16.436;99.370;2023-05-03T17:31:43;29.80;99.90
12602;DHT22;30282;16.436;99.370;2023-05-03T17:34:13;29.80;99.90
12602;DHT22;30282;16.436;99.370;2023-05-03T17:36:42;29.80;99.90
12602;DHT22;30282;16.436;99.370;2023-05-03T17:39:14;29.70;99.90
12602;DHT22;30282;16.436;99.370;2023-05-03T17:41:43;29.60;99.90
12602;DHT22;30282;16.436;99.370;2023-05-03T17:44:13;29.60;99.90
12602;DHT22;30282;16.436;99.370;2023-05-03T17:46:44;29.60;99.90
12602;DHT22;30282;16.436;99.370;2023-05-03T17:49:13;29.70;99.90
12602;DHT22;30282;16.436;99.370;2023-05-03T17:51:42;29.70;99.90
12602;DHT22;30282;16.436;99.370;2023-05-03T17:54:11;29.60;99.90
12602;DHT22;30282;16.436;99.370;2023-05-03T17:56:43;29.50;99.90
12602;DHT22;30282;16.436;99.370;2023-05-03T17:59:12;29.50;99.90
12602;DHT22;30282;16.436;99.370;2023-05-03T18:01:43;29.50;99.90
12602;DHT22;30282;16.436;99.370;2023-05-03T18:04:13;29.50;99.90
12602;DHT22;30282;16.436;99.370;2023-05-03T18:06:44;29.40;99.90
12602;DHT22;30282;16.436;99.370;2023-05-03T18:09:13;29.30;99.90
12602;DHT22;30282;16.436;99.370;2023-05-03T18:11:42;29.20;99.90
12602;DHT22;30282;16.436;99.370;2023-05-03T18:14:12;29.30;99.90
12602;DHT22;30282;16.436;99.370;2023-05-03T18:16:43;29.20;99.90
12602;DHT22;30282;16.436;99.370;2023-05-03T18:19:13;29.20;99.90
12602;DHT22;30282;16.436;99.370;2023-05-03T18:21:42;29.20;99.90
12602;DHT22;30282;16.436;99.370;2023-05-03T18:24:11;28.90;99.90
12602;DHT22;30282;16.436;99.370;2023-05-03T18:26:41;28.90;99.90
12602;DHT22;30282;16.436;99.370;2023-05-03T18:29:10;29.00;99.90
12602;DHT22;30282;16.436;99.370;2023-05-03T18:31:39;29.10;99.90
12602;DHT22;30282;16.436;99.370;2023-05-03T18:34:10;29.10;99.90
12602;DHT22;30282;16.436;99.370;2023-05-03T18:36:39;29.20;99.90
12602;DHT22;30282;16.436;99.370;2023-05-03T18:39:08;29.20;99.90
12602;DHT22;30282;16.436;99.370;2023-05-03T18:41:38;29.20;99.90
12602;DHT22;30282;16.436;99.370;2023-05-03T18:44:07;29.20;99.90
12602;DHT22;30282;16.436;99.370;2023-05-03T18:46:36;29.20;99.90
12602;DHT22;30282;16.436;99.370;2023-05-03T18:49:05;29.30;99.90
12602;DHT22;30282;16.436;99.370;2023-05-03T18:51:37;29.40;99.90
12602;DHT22;30282;16.436;99.370;2023-05-03T18:54:06;29.40;99.90
12602;DHT22;30282;16.436;99.370;2023-05-03T18:56:35;29.40;99.90
12602;DHT22;30282;16.436;99.370;2023-05-03T18:59:04;29.40;99.90
12602;DHT22;30282;16.436;99.370;2023-05-03T19:01:34;29.40;99.90
12602;DHT22;30282;16.436;99.370;2023-05-03T19:04:03;29.40;99.90
12602;DHT22;30282;16.436;99.370;2023-05-03T19:06:33;29.40;99.90
12602;DHT22;30282;16.436;99.370;2023-05-03T19:09:04;29.40;99.90
12602;DHT22;30282;16.436;99.370;2023-05-03T19:11:35;29.30;99.90
12602;DHT22;30282;16.436;99.370;2023-05-03T19:14:04;29.20;99.90
12602;DHT22;30282;16.436;99.370;2023-05-03T19:16:34;29.20;99.90
12602;DHT22;30282;16.436;99.370;2023-05-03T19:19:06;29.10;99.90
12602;DHT22;30282;16.436;99.370;2023-05-03T19:21:36;29.20;99.90
12602;DHT22;30282;16.436;99.370;2023-05-03T19:24:11;29.20;99.90
12602;DHT22;30282;16.436;99.370;2023-05-03T19:26:43;29.10;99.90
12602;DHT22;30282;16.436;99.370;2023-05-03T19:29:12;29.10;99.90
12602;DHT22;30282;16.436;99.370;2023-05-03T19:31:44;28.90;99.90
12602;DHT22;30282;16.436;99.370;2023-05-03T19:34:15;28.90;99.90
12602;DHT22;30282;16.436;99.370;2023-05-03T19:36:44;28.90;99.90
12602;DHT22;30282;16.436;99.370;2023-05-03T19:39:17;29.00;99.90
12602;DHT22;30282;16.436;99.370;2023-05-03T19:41:49;29.00;99.90
12602;DHT22;30282;16.436;99.370;2023-05-03T19:44:18;28.90;99.90
12602;DHT22;30282;16.436;99.370;2023-05-03T19:46:48;28.90;99.90
12602;DHT22;30282;16.436;99.370;2023-05-03T19:49:17;29.00;99.90
12602;DHT22;30282;16.436;99.370;2023-05-03T19:51:46;29.00;99.90
12602;DHT22;30282;16.436;99.370;2023-05-03T19:54:19;29.00;99.90
12602;DHT22;30282;16.436;99.370;2023-05-03T19:56:48;29.00;99.90
12602;DHT22;30282;16.436;99.370;2023-05-03T19:59:17;29.00;99.90
12602;DHT22;30282;16.436;99.370;2023-05-03T20:01:46;29.00;99.90
12602;DHT22;30282;16.436;99.370;2023-05-03T20:04:16;29.00;99.90
12602;DHT22;30282;16.436;99.370;2023-05-03T20:06:45;28.90;99.90
12602;DHT22;30282;16.436;99.370;2023-05-03T20:09:14;28.80;99.90
12602;DHT22;30282;16.436;99.370;2023-05-03T20:11:45;28.80;99.90
12602;DHT22;30282;16.436;99.370;2023-05-03T20:14:14;28.90;99.90
12602;DHT22;30282;16.436;99.370;2023-05-03T20:16:44;28.90;99.90
12602;DHT22;30282;16.436;99.370;2023-05-03T20:19:13;28.90;99.90
12602;DHT22;30282;16.436;99.370;2023-05-03T20:21:42;28.80;99.90
12602;DHT22;30282;16.436;99.370;2023-05-03T20:24:11;28.90;99.90
12602;DHT22;30282;16.436;99.370;2023-05-03T20:26:40;28.90;99.90
12602;DHT22;30282;16.436;99.370;2023-05-03T20:29:11;28.90;99.90
12602;DHT22;30282;16.436;99.370;2023-05-03T20:31:40;28.80;99.90
12602;DHT22;30282;16.436;99.370;2023-05-03T20:34:10;28.70;99.90
12602;DHT22;30282;16.436;99.370;2023-05-03T20:36:39;28.70;99.90
12602;DHT22;30282;16.436;99.370;2023-05-03T20:39:08;28.60;99.90
12602;DHT22;30282;16.436;99.370;2023-05-03T20:41:37;28.60;99.90
12602;DHT22;30282;16.436;99.370;2023-05-03T20:44:13;28.60;99.90
12602;DHT22;30282;16.436;99.370;2023-05-03T20:46:42;28.70;99.90
12602;DHT22;30282;16.436;99.370;2023-05-03T20:49:14;28.60;99.90
12602;DHT22;30282;16.436;99.370;2023-05-03T20:51:43;28.50;99.90
12602;DHT22;30282;16.436;99.370;2023-05-03T20:54:12;28.60;99.90
12602;DHT22;30282;16.436;99.370;2023-05-03T20:56:41;28.50;99.90
12602;DHT22;30282;16.436;99.370;2023-05-03T20:59:12;28.50;99.90
12602;DHT22;30282;16.436;99.370;2023-05-03T21:01:42;28.50;99.90
12602;DHT22;30282;16.436;99.370;2023-05-03T21:04:12;28.40;99.90
12602;DHT22;30282;16.436;99.370;2023-05-03T21:06:41;28.30;99.90
12602;DHT22;30282;16.436;99.370;2023-05-03T21:09:10;28.30;99.90
12602;DHT22;30282;16.436;99.370;2023-05-03T21:11:39;28.20;99.90
12602;DHT22;30282;16.436;99.370;2023-05-03T21:14:11;28.20;99.90
12602;DHT22;30282;16.436;99.370;2023-05-03T21:16:40;28.20;99.90
12602;DHT22;30282;16.436;99.370;2023-05-03T21:19:10;28.20;99.90
12602;DHT22;30282;16.436;99.370;2023-05-03T21:21:39;28.20;99.90
12602;DHT22;30282;16.436;99.370;2023-05-03T21:24:08;28.10;99.90
12602;DHT22;30282;16.436;99.370;2023-05-03T21:26:37;28.10;99.90
12602;DHT22;30282;16.436;99.370;2023-05-03T21:29:07;28.10;99.90
12602;DHT22;30282;16.436;99.370;2023-05-03T21:31:38;28.10;99.90
12602;DHT22;30282;16.436;99.370;2023-05-03T21:34:07;28.20;99.90
12602;DHT22;30282;16.436;99.370;2023-05-03T21:36:36;28.20;99.90
12602;DHT22;30282;16.436;99.370;2023-05-03T21:39:05;28.30;99.90
12602;DHT22;30282;16.436;99.370;2023-05-03T21:41:34;28.40;99.90
12602;DHT22;30282;16.436;99.370;2023-05-03T21:44:04;28.40;99.90
12602;DHT22;30282;16.436;99.370;2023-05-03T21:46:33;28.50;99.90
12602;DHT22;30282;16.436;99.370;2023-05-03T21:49:06;28.40;99.90
12602;DHT22;30282;16.436;99.370;2023-05-03T21:51:35;28.30;99.90
12602;DHT22;30282;16.436;99.370;2023-05-03T21:54:04;28.30;99.90
12602;DHT22;30282;16.436;99.370;2023-05-03T21:56:33;28.30;99.90
12602;DHT22;30282;16.436;99.370;2023-05-03T21:59:03;28.30;99.90
12602;DHT22;30282;16.436;99.370;2023-05-03T22:01:32;28.30;99.90
12602;DHT22;30282;16.436;99.370;2023-05-03T22:04:04;28.20;99.90
12602;DHT22;30282;16.436;99.370;2023-05-03T22:06:33;28.20;99.90
12602;DHT22;30282;16.436;99.370;2023-05-03T22:09:05;28.20;99.90
12602;DHT22;30282;16.436;99.370;2023-05-03T22:11:35;28.20;99.90
12602;DHT22;30282;16.436;99.370;2023-05-03T22:14:04;28.20;99.90
12602;DHT22;30282;16.436;99.370;2023-05-03T22:16:33;28.00;99.90
12602;DHT22;30282;16.436;99.370;2023-05-03T22:19:04;28.00;99.90
12602;DHT22;30282;16.436;99.370;2023-05-03T22:21:34;28.00;99.90
12602;DHT22;30282;16.436;99.370;2023-05-03T22:24:03;28.00;99.90
12602;DHT22;30282;16.436;99.370;2023-05-03T22:26:33;28.10;99.90
12602;DHT22;30282;16.436;99.370;2023-05-03T22:29:02;28.10;99.90
12602;DHT22;30282;16.436;99.370;2023-05-03T22:31:31;28.10;99.90
12602;DHT22;30282;16.436;99.370;2023-05-03T22:34:00;28.20;99.90
12602;DHT22;30282;16.436;99.370;2023-05-03T22:36:31;28.10;99.90
12602;DHT22;30282;16.436;99.370;2023-05-03T22:39:00;28.00;99.90
12602;DHT22;30282;16.436;99.370;2023-05-03T22:41:31;28.00;99.90
12602;DHT22;30282;16.436;99.370;2023-05-03T22:44:00;28.00;99.90
12602;DHT22;30282;16.436;99.370;2023-05-03T22:46:29;28.10;99.90
12602;DHT22;30282;16.436;99.370;2023-05-03T22:48:59;28.10;99.90
12602;DHT22;30282;16.436;99.370;2023-05-03T22:51:28;28.10;99.90
12602;DHT22;30282;16.436;99.370;2023-05-03T22:53:59;28.10;99.90
12602;DHT22;30282;16.436;99.370;2023-05-03T22:56:28;28.10;99.90
12602;DHT22;30282;16.436;99.370;2023-05-03T22:58:57;27.80;99.90
12602;DHT22;30282;16.436;99.370;2023-05-03T23:01:26;27.70;99.90
12602;DHT22;30282;16.436;99.370;2023-05-03T23:03:56;27.60;99.90
12602;DHT22;30282;16.436;99.370;2023-05-03T23:06:25;27.60;99.90
12602;DHT22;30282;16.436;99.370;2023-05-03T23:08:55;27.60;99.90
12602;DHT22;30282;16.436;99.370;2023-05-03T23:11:25;27.70;99.90
12602;DHT22;30282;16.436;99.370;2023-05-03T23:13:55;27.60;99.90
12602;DHT22;30282;16.436;99.370;2023-05-03T23:16:24;27.50;99.90
12602;DHT22;30282;16.436;99.370;2023-05-03T23:18:53;27.50;99.90
12602;DHT22;30282;16.436;99.370;2023-05-03T23:21:23;27.50;99.90
12602;DHT22;30282;16.436;99.370;2023-05-03T23:23:52;27.60;99.90
12602;DHT22;30282;16.436;99.370;2023-05-03T23:26:21;27.60;99.90
12602;DHT22;30282;16.436;99.370;2023-05-03T23:28:52;27.70;99.90
12602;DHT22;30282;16.436;99.370;2023-05-03T23:31:21;27.60;99.90
12602;DHT22;30282;16.436;99.370;2023-05-03T23:33:50;27.60;99.90
12602;DHT22;30282;16.436;99.370;2023-05-03T23:36:20;27.60;99.90
12602;DHT22;30282;16.436;99.370;2023-05-03T23:38:49;27.60;99.90
12602;DHT22;30282;16.436;99.370;2023-05-03T23:41:18;27.60;99.90
12602;DHT22;30282;16.436;99.370;2023-05-03T23:43:48;27.60;99.90
12602;DHT22;30282;16.436;99.370;2023-05-03T23:46:18;27.60;99.90
12602;DHT22;30282;16.436;99.370;2023-05-03T23:48:48;27.60;99.90
12602;DHT22;30282;16.436;99.370;2023-05-03T23:51:19;27.70;99.90
12602;DHT22;30282;16.436;99.370;2023-05-03T23:53:50;27.70;99.90
12602;DHT22;30282;16.436;99.370;2023-05-03T23:56:19;27.70;99.90
12602;DHT22;30282;16.436;99.370;2023-05-03T23:58:49;27.80;99.90
